MSC Annamaria — H3HN — position and weather

sailwx.info

Track history (hours):
 
Tides and Currents Weather Stations Pressure Air Temp Water Temp Dewpoint Dewpoint Depression Visibility Wind Speed Wind Dir Waves Ship Positions

MSC Annamaria

Last reported at 2014-Jul-17 07:15 UTC. Time now 2014-Jul-25 11:22 UTC.
Position N 38°03' E 015°35'.
Warning: this ship's position is 8 days out of date.

Length 188 m; draft 9 m.

Type: Ship (hazmat cat A). MMSI: 353852000.

Date/timePositionNaut miles runAvg speedWind from/ knotsBaromVisibWave heightAir tempDewpointWater temp
2014-Jul-17 07:15N 38°03' E 015°35'1014.1
2014-Jul-17 06:32N 38°13' E 015°36'  
2014-Jul-13 14:32N 36°43' E 023°20'2512.6
2014-Jul-13 12:32N 37°07' E 023°31'1312.9
2014-Jul-13 11:32N 37°18' E 023°38'1111.7
2014-Jul-13 10:33N 37°30' E 023°41'1211.9
2014-Jul-13 09:33N 37°42' E 023°41'1212.5
2014-Jul-13 08:33N 37°54' E 023°37'3 0.2
2014-Jul-12 17:10N 37°57' E 023°36'2 3.3
2014-Jul-12 16:33N 37°55' E 023°35'1 1.0
2014-Jul-12 15:32N 37°55' E 023°36'0 0.4
2014-Jul-12 14:23N 37°54' E 023°36'1 1.0
2014-Jul-12 13:33N 37°54' E 023°35'7 7.1
2014-Jul-12 12:33N 37°49' E 023°41'1512.5
2014-Jul-12 11:20N 37°36' E 023°51'1012.9
2014-Jul-12 10:32N 37°28' E 023°59'2612.4
2014-Jul-12 08:28N 37°08' E 024°20'1312.7
2014-Jul-12 07:27N 36°59' E 024°31'1112.3
2014-Jul-12 06:33N 36°52' E 024°42'1312.7
2014-Jul-12 05:32N 36°51' E 024°58'1312.8
2014-Jul-12 04:33N 36°50' E 025°14'1212.3
2014-Jul-12 03:33N 36°47' E 025°29'1111.5
2014-Jul-12 02:34N 36°42' E 025°42'1111.3
2014-Jul-12 01:33N 36°35' E 025°53'1211.9
2014-Jul-12 00:33N 36°28' E 026°05'1312.3
2014-Jul-11 23:32N 36°20' E 026°17'1312.6
2014-Jul-11 22:31N 36°15' E 026°31'37312.9
2014-Jul-10 17:33N 36°09' E 034°13'2612.6
2014-Jul-10 15:28N 36°14' E 034°45'  
2014-Jul-07 19:34N 34°52' E 035°02'1312.8
2014-Jul-07 18:34N 34°40' E 035°05'1312.8
2014-Jul-07 17:34N 34°27' E 035°07'1312.7
2014-Jul-07 16:33N 34°14' E 035°10'2210.7
2014-Jul-07 14:28N 33°55' E 035°23'8 8.5
2014-Jul-07 13:33N 33°55' E 035°32'  
Track history (hours):
 
Tides and Currents Weather Stations Pressure Air Temp Water Temp Dewpoint Dewpoint Depression Visibility Wind Speed Wind Dir Waves Ship Positions

MSC Annamaria

Last reported at 2014-Jul-17 07:15 UTC. Time now 2014-Jul-25 11:22 UTC.
Position N 38°03' E 015°35'.
Warning: this ship's position is 8 days out of date.

Length 188 m; draft 9 m.

Type: Ship (hazmat cat A). MMSI: 353852000.

Date/timePositionNaut miles runAvg speedWind from/ knotsBaromVisibWave heightAir tempDewpointWater temp
2014-Jul-17 07:15N 38°03' E 015°35'1014.1
2014-Jul-17 06:32N 38°13' E 015°36'  
2014-Jul-13 14:32N 36°43' E 023°20'2512.6
2014-Jul-13 12:32N 37°07' E 023°31'1312.9
2014-Jul-13 11:32N 37°18' E 023°38'1111.7
2014-Jul-13 10:33N 37°30' E 023°41'1211.9
2014-Jul-13 09:33N 37°42' E 023°41'1212.5
2014-Jul-13 08:33N 37°54' E 023°37'3 0.2
2014-Jul-12 17:10N 37°57' E 023°36'2 3.3
2014-Jul-12 16:33N 37°55' E 023°35'1 1.0
2014-Jul-12 15:32N 37°55' E 023°36'0 0.4
2014-Jul-12 14:23N 37°54' E 023°36'1 1.0
2014-Jul-12 13:33N 37°54' E 023°35'7 7.1
2014-Jul-12 12:33N 37°49' E 023°41'1512.5
2014-Jul-12 11:20N 37°36' E 023°51'1012.9
2014-Jul-12 10:32N 37°28' E 023°59'2612.4
2014-Jul-12 08:28N 37°08' E 024°20'1312.7
2014-Jul-12 07:27N 36°59' E 024°31'1112.3
2014-Jul-12 06:33N 36°52' E 024°42'1312.7
2014-Jul-12 05:32N 36°51' E 024°58'1312.8
2014-Jul-12 04:33N 36°50' E 025°14'1212.3
2014-Jul-12 03:33N 36°47' E 025°29'1111.5
2014-Jul-12 02:34N 36°42' E 025°42'1111.3
2014-Jul-12 01:33N 36°35' E 025°53'1211.9
2014-Jul-12 00:33N 36°28' E 026°05'1312.3
2014-Jul-11 23:32N 36°20' E 026°17'1312.6
2014-Jul-11 22:31N 36°15' E 026°31'37312.9
2014-Jul-10 17:33N 36°09' E 034°13'2612.6
2014-Jul-10 15:28N 36°14' E 034°45'  
2014-Jul-07 19:34N 34°52' E 035°02'1312.8
2014-Jul-07 18:34N 34°40' E 035°05'1312.8
2014-Jul-07 17:34N 34°27' E 035°07'1312.7
2014-Jul-07 16:33N 34°14' E 035°10'2210.7
2014-Jul-07 14:28N 33°55' E 035°23'8 8.5
2014-Jul-07 13:33N 33°55' E 035°32'  

Dump ship's entire track history